createdAt,value
2023-05-08T00:00:59.793Z,102222.22
2023-05-08T00:03:27.091Z,102229.50
2023-05-08T00:05:55.412Z,102234.41
2023-05-08T00:08:21.800Z,102231.94
2023-05-08T00:10:48.276Z,102237.31
2023-05-08T00:13:14.776Z,102231.06
2023-05-08T00:15:41.276Z,102227.69
2023-05-08T00:18:07.760Z,102229.22
2023-05-08T00:20:34.443Z,102227.47
2023-05-08T00:23:01.002Z,102224.84
2023-05-08T00:25:27.847Z,102214.06
2023-05-08T00:27:54.254Z,102214.06
2023-05-08T00:30:21.279Z,102213.25
2023-05-08T00:32:47.780Z,102217.78
2023-05-08T00:35:14.402Z,102210.47
2023-05-08T00:37:41.273Z,102211.50
2023-05-08T00:40:11.888Z,102210.88
2023-05-08T00:42:38.494Z,102223.72
2023-05-08T00:45:05.329Z,102215.03
2023-05-08T00:47:32.555Z,102219.84
2023-05-08T00:50:00.948Z,102216.50
2023-05-08T00:52:32.946Z,102209.59
2023-05-08T00:55:00.332Z,102212.25
2023-05-08T00:57:26.818Z,102214.59
2023-05-08T00:59:55.488Z,102210.38
2023-05-08T01:02:22.213Z,102219.59
2023-05-08T01:04:49.195Z,102220.41
2023-05-08T01:07:17.819Z,102221.22
2023-05-08T01:09:44.202Z,102218.38
2023-05-08T01:12:16.269Z,102220.63
2023-05-08T01:14:51.224Z,102222.31
2023-05-08T01:17:28.078Z,102215.66
2023-05-08T01:20:09.763Z,102218.22
2023-05-08T01:23:08.037Z,102222.28
2023-05-08T01:25:44.124Z,102214.00
2023-05-08T01:28:38.176Z,102215.53
2023-05-08T01:31:16.741Z,102218.28
2023-05-08T01:34:04.956Z,102224.84
2023-05-08T01:36:46.191Z,102225.72
2023-05-08T01:39:24.592Z,102226.84
2023-05-08T01:42:00.696Z,102228.88
2023-05-08T01:44:34.221Z,102228.00
2023-05-08T01:47:06.765Z,102226.44
2023-05-08T01:49:38.909Z,102232.84
2023-05-08T01:52:18.156Z,102227.41
2023-05-08T01:54:55.614Z,102228.28
2023-05-08T01:57:26.686Z,102226.59
2023-05-08T01:59:55.972Z,102223.00
2023-05-08T02:02:23.267Z,102236.66
2023-05-08T02:04:51.741Z,102232.22
2023-05-08T02:07:22.201Z,102234.16
2023-05-08T02:09:48.740Z,102241.38
2023-05-08T02:12:17.260Z,102235.97
2023-05-08T02:14:45.806Z,102232.47
2023-05-08T02:17:16.150Z,102237.84
2023-05-08T02:19:44.436Z,102236.78
2023-05-08T02:22:11.943Z,102238.88
2023-05-08T02:24:38.716Z,102241.63
2023-05-08T02:27:07.573Z,102238.78
2023-05-08T02:29:35.004Z,102244.31
2023-05-08T02:32:03.079Z,102238.94
2023-05-08T02:34:30.824Z,102242.50
2023-05-08T02:36:58.964Z,102246.88
2023-05-08T02:39:30.328Z,102250.59
2023-05-08T02:41:57.263Z,102249.69
2023-05-08T02:44:23.787Z,102249.53
2023-05-08T02:47:00.790Z,102255.97
2023-05-08T02:49:30.115Z,102263.31
2023-05-08T02:52:13.741Z,102250.47
2023-05-08T02:54:46.942Z,102253.50
2023-05-08T02:57:31.935Z,102248.88
2023-05-08T03:00:07.687Z,102248.78
2023-05-08T03:02:39.999Z,102242.28
2023-05-08T03:05:19.143Z,102242.84
2023-05-08T03:07:50.180Z,102243.59
2023-05-08T03:10:19.143Z,102242.78
2023-05-08T03:12:49.662Z,102233.94
2023-05-08T03:15:34.952Z,102233.13
2023-05-08T03:18:07.924Z,102233.19
2023-05-08T03:20:38.803Z,102236.00
2023-05-08T03:23:08.229Z,102240.81
2023-05-08T03:25:38.468Z,102235.53
2023-05-08T03:28:06.096Z,102232.91
2023-05-08T03:30:40.194Z,102233.91
2023-05-08T03:33:08.038Z,102229.34
2023-05-08T03:35:39.084Z,102234.66
2023-05-08T03:38:06.685Z,102235.53
2023-05-08T03:40:38.754Z,102232.91
2023-05-08T03:43:08.618Z,102224.84
2023-05-08T03:45:39.379Z,102223.28
2023-05-08T03:48:07.323Z,102228.72
2023-05-08T03:50:37.846Z,102221.41
2023-05-08T03:53:04.889Z,102225.03
2023-05-08T03:55:32.142Z,102218.88
2023-05-08T03:58:10.526Z,102220.00
2023-05-08T04:00:49.160Z,102231.00
2023-05-08T04:03:41.386Z,102223.00
2023-05-08T04:06:22.899Z,102227.59
2023-05-08T04:08:58.373Z,102228.38
2023-05-08T04:11:41.291Z,102230.97
2023-05-08T04:14:13.414Z,102230.09
2023-05-08T04:16:42.195Z,102229.97
2023-05-08T04:19:18.051Z,102235.53
2023-05-08T04:21:44.920Z,102236.78
2023-05-08T04:24:14.699Z,102233.16
2023-05-08T04:26:42.396Z,102237.59
2023-05-08T04:29:09.609Z,102237.47
2023-05-08T04:31:37.210Z,102240.03
2023-05-08T04:34:04.506Z,102245.28
2023-05-08T04:36:31.689Z,102232.94
2023-05-08T04:38:59.166Z,102235.53
2023-05-08T04:41:26.287Z,102240.72
2023-05-08T04:43:54.342Z,102244.28
2023-05-08T04:46:20.920Z,102248.66
2023-05-08T04:48:47.457Z,102249.44
2023-05-08T04:51:13.892Z,102241.16
2023-05-08T04:53:40.386Z,102251.00
2023-05-08T04:56:06.966Z,102249.00
2023-05-08T04:58:33.344Z,102255.13
2023-05-08T05:01:03.844Z,102255.03
2023-05-08T05:03:30.766Z,102254.72
2023-05-08T05:05:58.948Z,102263.38
2023-05-08T05:08:25.565Z,102268.69
2023-05-08T05:10:52.365Z,102267.75
2023-05-08T05:13:19.767Z,102269.91
2023-05-08T05:15:46.343Z,102273.97
2023-05-08T05:18:12.905Z,102262.78
2023-05-08T05:20:39.398Z,102278.53
2023-05-08T05:23:05.848Z,102274.50
2023-05-08T05:25:32.175Z,102284.88
2023-05-08T05:27:58.529Z,102281.44
2023-05-08T05:30:24.927Z,102284.06
2023-05-08T05:32:51.414Z,102277.88
2023-05-08T05:35:17.861Z,102279.06
2023-05-08T05:37:44.216Z,102278.78
2023-05-08T05:40:13.111Z,102283.16
2023-05-08T05:42:39.478Z,102279.19
2023-05-08T05:45:06.459Z,102285.94
2023-05-08T05:47:32.791Z,102276.63
2023-05-08T05:49:59.157Z,102279.78
2023-05-08T05:52:25.635Z,102284.09
2023-05-08T05:54:52.019Z,102285.63
2023-05-08T05:57:18.381Z,102289.63
2023-05-08T05:59:45.143Z,102294.38
2023-05-08T06:02:18.578Z,102286.84
2023-05-08T06:04:45.316Z,102288.31
2023-05-08T06:07:11.719Z,102287.88
2023-05-08T06:09:38.327Z,102291.16
2023-05-08T06:12:04.772Z,102288.91
2023-05-08T06:14:31.248Z,102292.03
2023-05-08T06:16:58.447Z,102295.09
2023-05-08T06:19:24.811Z,102289.47
2023-05-08T06:21:52.098Z,102290.06
2023-05-08T06:24:18.500Z,102291.66
2023-05-08T06:26:45.330Z,102290.09
2023-05-08T06:29:11.711Z,102283.00
2023-05-08T06:31:38.200Z,102297.31
2023-05-08T06:34:04.723Z,102295.19
2023-05-08T06:36:31.702Z,102295.03
2023-05-08T06:38:58.099Z,102290.13
2023-05-08T06:41:24.537Z,102284.56
2023-05-08T06:43:51.070Z,102298.63
2023-05-08T06:46:18.019Z,102288.13
2023-05-08T06:48:44.428Z,102290.19
2023-05-08T06:51:10.739Z,102292.63
2023-05-08T06:53:37.156Z,102285.69
2023-05-08T06:56:03.597Z,102295.63
2023-05-08T06:58:32.084Z,102295.94
2023-05-08T07:01:04.121Z,102296.25
2023-05-08T07:03:30.453Z,102297.94
2023-05-08T07:05:56.864Z,102300.34
2023-05-08T07:08:23.257Z,102303.97
2023-05-08T07:10:49.671Z,102300.84
2023-05-08T07:13:19.934Z,102291.81
2023-05-08T07:15:46.497Z,102291.56
2023-05-08T07:18:12.916Z,102296.88
2023-05-08T07:20:39.429Z,102300.84
2023-05-08T07:23:07.018Z,102292.00
2023-05-08T07:25:33.353Z,102294.06
2023-05-08T07:28:01.313Z,102299.63
2023-05-08T07:30:28.062Z,102297.19
2023-05-08T07:32:54.455Z,102287.13
2023-05-08T07:35:20.841Z,102289.66
2023-05-08T07:37:47.334Z,102285.94
2023-05-08T07:40:13.725Z,102285.88
2023-05-08T07:42:41.449Z,102284.84
2023-05-08T07:45:12.575Z,102290.00
2023-05-08T07:47:48.579Z,102285.34
2023-05-08T07:50:15.119Z,102288.06
2023-05-08T07:52:41.499Z,102285.00
2023-05-08T07:55:08.490Z,102284.63
2023-05-08T07:57:38.890Z,102284.03
2023-05-08T08:00:07.148Z,102291.28
2023-05-08T08:02:33.711Z,102299.56
2023-05-08T08:05:00.245Z,102290.28
2023-05-08T08:07:27.177Z,102292.03
2023-05-08T08:09:53.642Z,102287.31
2023-05-08T08:12:20.784Z,102286.44
2023-05-08T08:14:47.143Z,102294.66
2023-05-08T08:17:13.535Z,102294.38
2023-05-08T08:19:40.276Z,102300.09
2023-05-08T08:22:06.658Z,102295.44
2023-05-08T08:24:33.108Z,102300.69
2023-05-08T08:26:59.489Z,102291.25
2023-05-08T08:29:25.970Z,102298.22
2023-05-08T08:31:52.390Z,102294.63
2023-05-08T08:34:18.801Z,102286.03
2023-05-08T08:36:45.224Z,102290.22
2023-05-08T08:39:13.432Z,102288.78
2023-05-08T08:41:41.140Z,102279.38
2023-05-08T08:44:07.581Z,102272.81
2023-05-08T08:46:38.275Z,102277.75
2023-05-08T08:49:08.197Z,102270.25
2023-05-08T08:51:45.970Z,102268.75
2023-05-08T08:54:14.014Z,102277.13
2023-05-08T08:56:44.622Z,102274.59
2023-05-08T08:59:16.508Z,102270.75
2023-05-08T09:01:48.017Z,102273.06
2023-05-08T09:04:16.316Z,102276.38
2023-05-08T09:06:42.983Z,102277.06
2023-05-08T09:09:12.278Z,102280.44
2023-05-08T09:11:40.393Z,102279.47
2023-05-08T09:14:07.089Z,102280.72
2023-05-08T09:16:33.476Z,102279.88
2023-05-08T09:19:00.485Z,102263.50
2023-05-08T09:21:27.758Z,102270.13
2023-05-08T09:24:01.356Z,102274.91
2023-05-08T09:26:27.703Z,102277.91
2023-05-08T09:29:23.776Z,102269.69
2023-05-08T09:31:52.701Z,102273.84
2023-05-08T09:34:30.301Z,102272.66
2023-05-08T09:37:13.873Z,102260.91
2023-05-08T09:39:41.988Z,102269.22
2023-05-08T09:42:08.334Z,102260.44
2023-05-08T09:45:01.136Z,102267.72
2023-05-08T09:47:27.572Z,102259.22
2023-05-08T09:50:02.091Z,102271.22
2023-05-08T09:52:29.668Z,102274.03
2023-05-08T09:55:01.769Z,102276.44
2023-05-08T09:57:29.451Z,102269.13
2023-05-08T10:00:11.883Z,102269.03
2023-05-08T10:02:53.739Z,102267.28
2023-05-08T10:05:25.294Z,102273.19
2023-05-08T10:07:51.834Z,102273.38
2023-05-08T10:10:33.562Z,102277.63
2023-05-08T10:13:00.095Z,102274.72
2023-05-08T10:15:29.964Z,102274.22
2023-05-08T10:17:56.379Z,102275.44
2023-05-08T10:20:27.437Z,102274.28
2023-05-08T10:22:57.250Z,102280.13
2023-05-08T10:25:24.712Z,102273.16
2023-05-08T10:28:06.355Z,102276.34
2023-05-08T10:30:38.150Z,102274.91
2023-05-08T10:33:09.476Z,102272.63
2023-05-08T10:35:37.610Z,102268.59
2023-05-08T10:38:05.194Z,102273.50
2023-05-08T10:40:31.642Z,102276.53
2023-05-08T10:42:59.273Z,102273.94
2023-05-08T10:45:26.755Z,102267.03
2023-05-08T10:48:08.472Z,102273.56
2023-05-08T10:50:44.571Z,102275.75
2023-05-08T10:53:11.138Z,102265.28
2023-05-08T10:55:38.860Z,102271.84
2023-05-08T10:58:08.362Z,102272.44
2023-05-08T11:01:07.863Z,102275.53
2023-05-08T11:03:44.992Z,102268.38
2023-05-08T11:06:11.944Z,102271.16
2023-05-08T11:09:04.759Z,102269.00
2023-05-08T11:11:33.726Z,102267.63
2023-05-08T11:14:12.021Z,102263.56
2023-05-08T11:16:53.778Z,102263.69
2023-05-08T11:19:22.312Z,102253.44
2023-05-08T11:22:13.557Z,102257.25
2023-05-08T11:24:46.703Z,102252.56
2023-05-08T11:27:13.171Z,102248.31
2023-05-08T11:29:39.909Z,102251.06
2023-05-08T11:32:06.487Z,102242.97
2023-05-08T11:34:45.846Z,102238.31
2023-05-08T11:37:17.915Z,102240.25
2023-05-08T11:39:44.542Z,102238.56
2023-05-08T11:42:29.120Z,102233.41
2023-05-08T11:45:09.750Z,102238.56
2023-05-08T11:47:44.434Z,102227.88
2023-05-08T11:50:13.277Z,102229.81
2023-05-08T11:52:41.585Z,102227.66
2023-05-08T11:55:12.820Z,102232.53
2023-05-08T11:57:39.359Z,102235.44
2023-05-08T12:00:10.671Z,102235.66
2023-05-08T12:02:42.454Z,102237.41
2023-05-08T12:05:10.671Z,102232.28
2023-05-08T12:07:45.112Z,102230.22
2023-05-08T12:10:11.966Z,102227.81
2023-05-08T12:12:40.598Z,102216.91
2023-05-08T12:15:12.303Z,102222.19
2023-05-08T12:17:39.297Z,102223.94
2023-05-08T12:20:13.513Z,102218.22
2023-05-08T12:22:50.907Z,102207.16
2023-05-08T12:25:17.893Z,102199.50
2023-05-08T12:27:44.893Z,102213.22
2023-05-08T12:30:13.998Z,102209.66
2023-05-08T12:32:41.866Z,102220.72
2023-05-08T12:35:09.943Z,102204.19
2023-05-08T12:37:36.731Z,102203.22
2023-05-08T12:40:04.628Z,102203.66
2023-05-08T12:42:48.278Z,102197.84
2023-05-08T12:45:22.284Z,102184.66
2023-05-08T12:47:53.457Z,102192.38
2023-05-08T12:50:22.297Z,102191.91
2023-05-08T12:52:51.391Z,102180.81
2023-05-08T12:55:23.786Z,102180.06
2023-05-08T12:57:58.646Z,102171.53
2023-05-08T13:00:25.207Z,102174.25
2023-05-08T13:02:56.014Z,102175.72
2023-05-08T13:05:23.562Z,102166.78
2023-05-08T13:07:51.487Z,102165.50
2023-05-08T13:10:23.959Z,102166.50
2023-05-08T13:12:52.226Z,102163.59
2023-05-08T13:15:18.798Z,102157.53
2023-05-08T13:17:45.263Z,102162.50
2023-05-08T13:20:12.024Z,102169.25
2023-05-08T13:22:38.539Z,102164.03
2023-05-08T13:25:05.804Z,102161.06
2023-05-08T13:27:32.205Z,102171.13
2023-05-08T13:29:58.627Z,102153.69
2023-05-08T13:32:25.030Z,102159.28
2023-05-08T13:34:53.103Z,102156.81
2023-05-08T13:37:22.914Z,102165.28
2023-05-08T13:39:49.266Z,102158.56
2023-05-08T13:42:15.720Z,102148.09
2023-05-08T13:44:42.120Z,102148.28
2023-05-08T13:47:09.991Z,102154.19
2023-05-08T13:49:36.328Z,102140.31
2023-05-08T13:52:02.884Z,102153.56
2023-05-08T13:54:29.416Z,102147.31
2023-05-08T13:56:55.916Z,102142.19
2023-05-08T13:59:22.307Z,102141.50
2023-05-08T14:01:48.674Z,102142.09
2023-05-08T14:04:15.335Z,102142.50
2023-05-08T14:06:41.792Z,102134.25
2023-05-08T14:09:08.197Z,102134.66
2023-05-08T14:11:34.532Z,102130.44
2023-05-08T14:14:00.972Z,102124.97
2023-05-08T14:16:28.400Z,102137.69
2023-05-08T14:18:54.882Z,102126.44
2023-05-08T14:21:21.269Z,102136.41
2023-05-08T14:23:47.662Z,102130.47
2023-05-08T14:26:14.029Z,102129.72
2023-05-08T14:28:40.541Z,102129.06
2023-05-08T14:31:06.987Z,102124.72
2023-05-08T14:33:33.456Z,102131.13
2023-05-08T14:35:59.862Z,102131.59
2023-05-08T14:38:26.293Z,102120.44
2023-05-08T14:40:54.357Z,102121.72
2023-05-08T14:43:21.553Z,102123.25
2023-05-08T14:45:48.289Z,102119.97
2023-05-08T14:48:14.920Z,102115.16
2023-05-08T14:50:41.617Z,102119.16
2023-05-08T14:53:08.322Z,102112.41
2023-05-08T14:55:34.959Z,102111.84
2023-05-08T14:58:01.484Z,102118.59
2023-05-08T15:00:27.879Z,102108.66
2023-05-08T15:02:54.427Z,102117.00
2023-05-08T15:05:21.106Z,102112.50
2023-05-08T15:07:49.494Z,102114.91
2023-05-08T15:10:16.091Z,102115.06
2023-05-08T15:12:42.553Z,102101.97
2023-05-08T15:15:09.257Z,102110.31
2023-05-08T15:17:36.488Z,102108.41
2023-05-08T15:20:03.816Z,102110.34
2023-05-08T15:22:30.350Z,102108.69
2023-05-08T15:25:02.130Z,102112.72
2023-05-08T15:27:31.963Z,102107.78
2023-05-08T15:29:58.557Z,102105.94
2023-05-08T15:32:25.066Z,102102.56
2023-05-08T15:34:51.551Z,102100.44
2023-05-08T15:37:17.935Z,102104.56
2023-05-08T15:39:44.334Z,102095.91
2023-05-08T15:42:10.711Z,102096.03
2023-05-08T15:44:53.990Z,102092.28
2023-05-08T15:47:23.102Z,102095.03
2023-05-08T15:49:53.195Z,102107.38
2023-05-08T15:52:19.881Z,102104.69
2023-05-08T15:54:47.291Z,102098.63
2023-05-08T15:57:13.824Z,102096.50
2023-05-08T15:59:40.344Z,102100.28
2023-05-08T16:02:06.781Z,102105.50
2023-05-08T16:04:33.153Z,102106.38
2023-05-08T16:06:59.993Z,102110.13
2023-05-08T16:09:26.562Z,102108.25
2023-05-08T16:11:52.992Z,102112.63
2023-05-08T16:14:20.106Z,102114.84
2023-05-08T16:16:46.583Z,102109.25
2023-05-08T16:19:12.941Z,102116.22
2023-05-08T16:21:39.409Z,102112.38
2023-05-08T16:24:06.074Z,102100.81
2023-05-08T16:26:32.429Z,102107.41
2023-05-08T16:28:58.834Z,102104.28
2023-05-08T16:31:25.216Z,102105.75
2023-05-08T16:33:51.632Z,102112.22
2023-05-08T16:36:17.956Z,102112.47
2023-05-08T16:38:44.299Z,102122.50
2023-05-08T16:41:11.245Z,102110.47
2023-05-08T16:43:37.623Z,102102.03
2023-05-08T16:46:06.503Z,102110.97
2023-05-08T16:48:33.451Z,102109.22
2023-05-08T16:50:59.909Z,102106.38
2023-05-08T16:53:27.232Z,102103.63
2023-05-08T16:55:54.534Z,102101.78
2023-05-08T16:58:22.837Z,102094.47
2023-05-08T17:00:49.417Z,102092.50
2023-05-08T17:03:15.978Z,102090.25
2023-05-08T17:05:42.459Z,102079.97
2023-05-08T17:08:08.810Z,102086.78
2023-05-08T17:10:35.716Z,102080.94
2023-05-08T17:13:02.123Z,102084.31
2023-05-08T17:15:28.968Z,102089.78
2023-05-08T17:17:55.999Z,102087.75
2023-05-08T17:20:22.401Z,102085.47
2023-05-08T17:22:48.847Z,102108.81
2023-05-08T17:25:15.309Z,102099.38
2023-05-08T17:27:41.707Z,102099.59
2023-05-08T17:30:11.891Z,102104.50
2023-05-08T17:32:38.735Z,102104.88
2023-05-08T17:35:05.807Z,102109.47
2023-05-08T17:37:32.214Z,102106.81
2023-05-08T17:39:58.568Z,102108.56
2023-05-08T17:42:24.980Z,102105.34
2023-05-08T17:44:51.312Z,102110.09
2023-05-08T17:47:17.698Z,102101.69
2023-05-08T17:49:44.101Z,102101.94
2023-05-08T17:52:10.526Z,102103.97
2023-05-08T17:54:36.872Z,102100.22
2023-05-08T17:57:03.300Z,102097.72
2023-05-08T17:59:29.676Z,102096.09
2023-05-08T18:01:56.083Z,102096.09
2023-05-08T18:04:22.848Z,102099.69
2023-05-08T18:06:51.498Z,102099.41
2023-05-08T18:09:17.840Z,102097.66
2023-05-08T18:11:44.383Z,102112.28
2023-05-08T18:14:10.907Z,102117.09
2023-05-08T18:16:37.329Z,102112.13
2023-05-08T18:19:03.797Z,102114.31
2023-05-08T18:21:31.519Z,102109.09
2023-05-08T18:23:57.942Z,102115.81
2023-05-08T18:26:24.391Z,102110.38
2023-05-08T18:28:50.794Z,102109.50
2023-05-08T18:31:17.169Z,102118.44
2023-05-08T18:33:43.593Z,102119.53
2023-05-08T18:36:10.103Z,102117.34
2023-05-08T18:38:36.617Z,102115.50
2023-05-08T18:41:06.301Z,102106.81
2023-05-08T18:43:33.007Z,102111.03
2023-05-08T18:46:00.596Z,102109.63
2023-05-08T18:48:27.255Z,102118.13
2023-05-08T18:50:55.783Z,102114.84
2023-05-08T18:53:22.248Z,102103.84
2023-05-08T18:55:48.626Z,102105.28
2023-05-08T18:58:15.003Z,102091.19
2023-05-08T19:00:41.528Z,102091.63
2023-05-08T19:03:08.015Z,102089.47
2023-05-08T19:05:34.567Z,102085.00
2023-05-08T19:08:00.976Z,102090.66
2023-05-08T19:10:27.551Z,102093.03
2023-05-08T19:12:54.008Z,102096.28
2023-05-08T19:15:20.534Z,102092.88
2023-05-08T19:17:47.001Z,102099.59
2023-05-08T19:20:13.855Z,102097.94
2023-05-08T19:22:40.559Z,102103.44
2023-05-08T19:25:07.224Z,102102.88
2023-05-08T19:27:33.615Z,102100.16
2023-05-08T19:30:00.068Z,102096.91
2023-05-08T19:32:26.611Z,102100.13
2023-05-08T19:34:53.531Z,102092.09
2023-05-08T19:37:19.889Z,102099.00
2023-05-08T19:39:46.248Z,102099.41
2023-05-08T19:42:13.807Z,102103.28
2023-05-08T19:44:40.270Z,102099.44
2023-05-08T19:47:07.088Z,102111.78
2023-05-08T19:49:33.426Z,102104.00
2023-05-08T19:51:59.871Z,102112.47
2023-05-08T19:54:26.235Z,102109.84
2023-05-08T19:56:52.615Z,102111.22
2023-05-08T19:59:18.965Z,102111.50
2023-05-08T20:01:45.503Z,102112.75
2023-05-08T20:04:12.057Z,102118.28
2023-05-08T20:06:39.218Z,102126.31
2023-05-08T20:09:06.260Z,102115.56
2023-05-08T20:11:32.782Z,102117.31
2023-05-08T20:13:59.264Z,102112.66
2023-05-08T20:16:25.730Z,102113.44
2023-05-08T20:18:55.165Z,102119.53
2023-05-08T20:21:21.667Z,102128.81
2023-05-08T20:23:48.309Z,102130.53
2023-05-08T20:26:14.664Z,102138.59
2023-05-08T20:28:41.076Z,102131.72
2023-05-08T20:31:07.594Z,102127.44
2023-05-08T20:33:34.037Z,102135.97
2023-05-08T20:36:00.467Z,102143.31
2023-05-08T20:38:26.865Z,102142.84
2023-05-08T20:40:55.835Z,102146.34
2023-05-08T20:43:25.036Z,102149.44
2023-05-08T20:45:51.458Z,102138.53
2023-05-08T20:48:17.839Z,102141.41
2023-05-08T20:50:44.243Z,102140.44
2023-05-08T20:53:10.645Z,102140.28
2023-05-08T20:55:37.053Z,102135.63
2023-05-08T20:58:04.202Z,102133.97
2023-05-08T21:00:30.798Z,102128.91
2023-05-08T21:02:57.290Z,102127.16
2023-05-08T21:05:23.740Z,102129.09
2023-05-08T21:07:50.254Z,102119.00
2023-05-08T21:10:17.243Z,102125.31
2023-05-08T21:12:45.268Z,102103.41
2023-05-08T21:15:11.733Z,102101.78
2023-05-08T21:17:38.273Z,102095.97
2023-05-08T21:20:05.155Z,102093.53
2023-05-08T21:22:33.777Z,102091.88
2023-05-08T21:25:00.211Z,102092.19
2023-05-08T21:27:27.036Z,102095.84
2023-05-08T21:29:53.483Z,102097.00
2023-05-08T21:32:19.807Z,102100.75
2023-05-08T21:34:46.162Z,102097.34
2023-05-08T21:37:12.689Z,102100.25
2023-05-08T21:39:39.080Z,102093.38
2023-05-08T21:42:05.584Z,102092.88
2023-05-08T21:44:31.977Z,102088.34
2023-05-08T21:46:58.333Z,102089.13
2023-05-08T21:49:24.758Z,102084.06
2023-05-08T21:51:52.892Z,102076.22
2023-05-08T21:54:22.279Z,102078.94
2023-05-08T21:56:48.731Z,102070.59
2023-05-08T21:59:15.603Z,102065.09
2023-05-08T22:01:42.218Z,102070.59
2023-05-08T22:04:08.633Z,102070.69
2023-05-08T22:06:35.043Z,102065.53
2023-05-08T22:09:01.850Z,102067.44
2023-05-08T22:11:28.244Z,102067.53
2023-05-08T22:13:54.677Z,102062.19
2023-05-08T22:16:21.082Z,102054.84
2023-05-08T22:18:47.452Z,102054.16
2023-05-08T22:21:13.871Z,102047.19
2023-05-08T22:23:40.249Z,102041.38
2023-05-08T22:26:07.070Z,102038.09
2023-05-08T22:28:33.474Z,102029.97
2023-05-08T22:30:59.891Z,102030.75
2023-05-08T22:33:26.292Z,102022.41
2023-05-08T22:35:52.651Z,102019.22
2023-05-08T22:38:19.068Z,102025.59
2023-05-08T22:40:47.594Z,102020.28
2023-05-08T22:43:14.300Z,102022.31
2023-05-08T22:45:40.738Z,102008.34
2023-05-08T22:48:07.356Z,102002.59
2023-05-08T22:50:35.371Z,101998.72
2023-05-08T22:53:07.713Z,101994.19
2023-05-08T22:55:35.014Z,101993.31
2023-05-08T22:58:01.809Z,101976.28
2023-05-08T23:00:28.150Z,101980.06
2023-05-08T23:02:55.086Z,101979.28
2023-05-08T23:05:21.719Z,101982.25
2023-05-08T23:07:48.048Z,101975.69
2023-05-08T23:10:15.750Z,101978.50
2023-05-08T23:12:42.899Z,101972.13
2023-05-08T23:15:09.930Z,101971.63
2023-05-08T23:17:36.354Z,101970.84
2023-05-08T23:20:02.896Z,101960.09
2023-05-08T23:22:29.266Z,101958.34
2023-05-08T23:24:55.643Z,101959.13
2023-05-08T23:27:22.059Z,101963.00
2023-05-08T23:29:48.526Z,101954.78
2023-05-08T23:32:15.276Z,101958.53
2023-05-08T23:34:42.287Z,101946.25
2023-05-08T23:37:08.959Z,101942.81
2023-05-08T23:39:37.984Z,101939.16
2023-05-08T23:42:04.425Z,101928.50
2023-05-08T23:44:30.780Z,101921.53
2023-05-08T23:46:57.149Z,101925.22
2023-05-08T23:49:23.546Z,101911.47
2023-05-08T23:51:49.930Z,101915.06
2023-05-08T23:54:16.469Z,101915.34
2023-05-08T23:56:43.097Z,101920.84
2023-05-08T23:59:09.685Z,101921.63
